createdAt,value
2022-10-05T00:00:00.652Z,6.43
2022-10-05T00:03:11.273Z,7.40
2022-10-05T00:06:15.384Z,5.50
2022-10-05T00:09:21.757Z,5.70
2022-10-05T00:12:26.507Z,6.13
2022-10-05T00:15:30.419Z,5.75
2022-10-05T00:18:33.961Z,6.72
2022-10-05T00:21:37.453Z,6.68
2022-10-05T00:24:41.935Z,6.05
2022-10-05T00:27:49.653Z,6.22
2022-10-05T00:30:56.565Z,6.38
2022-10-05T00:34:00.202Z,7.15
2022-10-05T00:37:04.185Z,5.80
2022-10-05T00:40:21.353Z,6.50
2022-10-05T00:43:45.031Z,6.95
2022-10-05T00:46:55.761Z,7.25
2022-10-05T00:50:18.989Z,6.63
2022-10-05T00:53:39.178Z,6.50
2022-10-05T00:57:22.593Z,6.90
2022-10-05T01:00:27.929Z,6.18
2022-10-05T01:03:38.475Z,6.25
2022-10-05T01:06:55.589Z,6.28
2022-10-05T01:10:12.675Z,6.20
2022-10-05T01:13:26.673Z,6.80
2022-10-05T01:16:37.030Z,6.43
2022-10-05T01:20:03.115Z,6.80
2022-10-05T01:23:30.261Z,6.03
2022-10-05T01:26:55.325Z,6.85
2022-10-05T01:30:03.837Z,6.97
2022-10-05T01:33:17.060Z,6.88
2022-10-05T01:36:31.172Z,7.55
2022-10-05T01:39:44.749Z,6.78
2022-10-05T01:43:00.088Z,7.10
2022-10-05T01:46:11.600Z,6.78
2022-10-05T01:49:36.199Z,6.05
2022-10-05T01:52:50.178Z,7.35
2022-10-05T01:56:02.208Z,7.20
2022-10-05T01:59:19.034Z,7.15
2022-10-05T02:02:26.976Z,6.80
2022-10-05T02:05:39.302Z,6.63
2022-10-05T02:08:47.979Z,6.57
2022-10-05T02:11:57.707Z,7.93
2022-10-05T02:15:08.312Z,7.63
2022-10-05T02:18:19.087Z,7.18
2022-10-05T02:21:24.494Z,6.28
2022-10-05T02:24:33.421Z,7.47
2022-10-05T02:27:50.270Z,6.70
2022-10-05T02:30:57.835Z,6.10
2022-10-05T02:34:28.684Z,7.63
2022-10-05T02:38:01.844Z,7.25
2022-10-05T02:41:25.301Z,7.40
2022-10-05T02:44:40.162Z,6.95
2022-10-05T02:47:50.595Z,6.97
2022-10-05T02:51:03.925Z,7.78
2022-10-05T02:54:16.534Z,7.38
2022-10-05T02:57:27.956Z,7.10
2022-10-05T03:00:37.001Z,8.35
2022-10-05T03:03:44.565Z,7.22
2022-10-05T03:07:00.002Z,7.60
2022-10-05T03:10:08.790Z,7.97
2022-10-05T03:13:22.556Z,8.40
2022-10-05T03:16:39.504Z,9.43
2022-10-05T03:20:17.313Z,9.48
2022-10-05T03:23:34.929Z,10.10
2022-10-05T03:26:49.926Z,9.75
2022-10-05T03:29:59.322Z,9.98
2022-10-05T03:35:13.259Z,11.32
2022-10-05T03:38:24.591Z,9.75
2022-10-05T03:41:35.916Z,11.00
2022-10-05T03:44:50.536Z,11.43
2022-10-05T03:48:04.113Z,9.40
2022-10-05T03:51:21.286Z,8.77
2022-10-05T03:54:29.976Z,10.98
2022-10-05T03:57:38.460Z,11.15
2022-10-05T04:00:44.768Z,12.15
2022-10-05T04:03:51.822Z,10.02
2022-10-05T04:06:59.109Z,9.45
2022-10-05T04:10:07.287Z,9.10
2022-10-05T04:13:16.463Z,9.20
2022-10-05T04:16:24.167Z,10.32
2022-10-05T04:19:35.595Z,11.48
2022-10-05T04:22:44.151Z,9.80
2022-10-05T04:25:51.666Z,11.00
2022-10-05T04:29:04.353Z,10.02
2022-10-05T04:32:22.556Z,11.40
2022-10-05T04:35:55.686Z,9.85
2022-10-05T04:39:15.604Z,10.77
2022-10-05T04:42:30.515Z,9.95
2022-10-05T04:45:46.279Z,9.73
2022-10-05T04:49:09.162Z,10.65
2022-10-05T04:52:22.485Z,11.68
2022-10-05T04:55:37.088Z,11.02
2022-10-05T04:58:57.906Z,9.80
2022-10-05T05:02:11.996Z,9.23
2022-10-05T05:06:04.947Z,9.02
2022-10-05T05:09:34.405Z,9.10
2022-10-05T05:12:53.498Z,9.90
2022-10-05T05:16:05.683Z,9.88
2022-10-05T05:19:35.142Z,13.52
2022-10-05T05:22:46.532Z,11.45
2022-10-05T05:26:02.530Z,9.43
2022-10-05T05:29:16.937Z,9.85
2022-10-05T05:32:32.101Z,11.63
2022-10-05T05:35:50.366Z,11.18
2022-10-05T05:42:06.338Z,12.73
2022-10-05T05:45:17.656Z,11.82
2022-10-05T05:48:27.957Z,11.77
2022-10-05T05:51:36.371Z,14.82
2022-10-05T05:54:44.186Z,12.57
2022-10-05T05:57:52.412Z,11.50
2022-10-05T06:01:02.553Z,13.00
2022-10-05T06:04:12.254Z,14.38
2022-10-05T06:07:20.734Z,12.85
2022-10-05T06:10:32.524Z,12.85
2022-10-05T06:13:43.698Z,12.88
2022-10-05T06:16:55.445Z,12.07
2022-10-05T06:20:05.055Z,12.80
2022-10-05T06:23:19.117Z,12.73
2022-10-05T06:26:39.478Z,13.02
2022-10-05T06:30:02.701Z,12.68
2022-10-05T06:33:23.906Z,12.68
2022-10-05T06:36:40.271Z,12.63
2022-10-05T06:40:01.061Z,12.88
2022-10-05T06:43:25.449Z,12.25
2022-10-05T06:46:56.640Z,12.43
2022-10-05T06:50:33.726Z,11.30
2022-10-05T06:54:06.093Z,11.65
2022-10-05T06:57:25.247Z,12.35
2022-10-05T07:00:35.337Z,11.60
2022-10-05T07:03:49.997Z,10.90
2022-10-05T07:06:59.559Z,11.52
2022-10-05T07:10:18.188Z,11.77
2022-10-05T07:13:40.880Z,10.95
2022-10-05T07:16:57.181Z,11.25
2022-10-05T07:20:09.625Z,10.90
2022-10-05T07:23:24.067Z,11.10
2022-10-05T07:26:34.634Z,10.77
2022-10-05T07:29:47.740Z,9.68
2022-10-05T07:32:59.680Z,9.95
2022-10-05T07:36:27.765Z,10.88
2022-10-05T07:39:58.989Z,10.38
2022-10-05T07:43:14.919Z,9.15
2022-10-05T07:46:24.860Z,9.98
2022-10-05T07:49:37.790Z,9.52
2022-10-05T07:52:50.792Z,10.00
2022-10-05T07:56:00.311Z,9.30
2022-10-05T07:59:09.562Z,8.40
2022-10-05T08:02:23.754Z,7.90
2022-10-05T08:05:30.230Z,8.43
2022-10-05T08:08:44.028Z,8.25
2022-10-05T08:11:56.634Z,8.80
2022-10-05T08:15:04.316Z,9.75
2022-10-05T08:18:16.893Z,8.90
2022-10-05T08:21:25.829Z,7.00
2022-10-05T08:24:41.791Z,8.40
2022-10-05T08:27:52.834Z,7.55
2022-10-05T08:31:01.437Z,7.68
2022-10-05T08:34:17.436Z,7.78
2022-10-05T08:37:25.241Z,8.35
2022-10-05T08:44:08.131Z,8.02
2022-10-05T08:47:38.130Z,7.80
2022-10-05T08:51:03.991Z,6.95
2022-10-05T08:54:40.113Z,7.35
2022-10-05T08:58:12.244Z,7.63
2022-10-05T09:01:23.496Z,6.50
2022-10-05T09:04:42.793Z,6.05
2022-10-05T09:08:08.644Z,6.47
2022-10-05T09:11:16.697Z,8.88
2022-10-05T09:14:42.858Z,6.28
2022-10-05T09:18:21.411Z,6.25
2022-10-05T09:21:41.296Z,6.07
2022-10-05T09:24:57.249Z,5.72
2022-10-05T09:28:12.218Z,5.63
2022-10-05T09:35:16.980Z,5.22
2022-10-05T09:38:32.835Z,5.43
2022-10-05T09:42:09.315Z,5.05
2022-10-05T09:45:49.246Z,6.20
2022-10-05T09:52:48.872Z,5.25
2022-10-05T09:56:13.222Z,5.65
2022-10-05T10:00:02.298Z,4.68
2022-10-05T10:03:45.632Z,4.38
2022-10-05T10:07:21.596Z,4.43
2022-10-05T10:11:02.593Z,4.65
2022-10-05T10:14:23.983Z,4.63
2022-10-05T10:17:43.925Z,3.97
2022-10-05T10:21:24.727Z,4.03
2022-10-05T10:25:02.183Z,4.70
2022-10-05T10:28:32.421Z,4.28
2022-10-05T10:31:50.727Z,4.65
2022-10-05T10:35:20.722Z,4.43
2022-10-05T10:38:33.132Z,4.30
2022-10-05T10:42:22.571Z,3.58
2022-10-05T10:45:45.433Z,4.13
2022-10-05T10:49:07.999Z,4.47
2022-10-05T10:52:26.627Z,4.30
2022-10-05T10:55:39.114Z,4.15
2022-10-05T10:59:18.522Z,4.07
2022-10-05T11:02:42.483Z,3.75
2022-10-05T11:06:27.238Z,4.50
2022-10-05T11:09:53.459Z,3.90
2022-10-05T11:13:24.784Z,6.22
2022-10-05T11:16:39.788Z,3.80
2022-10-05T11:20:06.325Z,3.85
2022-10-05T11:23:39.796Z,4.03
2022-10-05T11:27:12.176Z,3.83
2022-10-05T11:30:37.802Z,3.50
2022-10-05T11:34:18.407Z,3.50
2022-10-05T11:37:39.830Z,3.22
2022-10-05T11:41:03.256Z,3.30
2022-10-05T11:44:35.485Z,3.55
2022-10-05T11:47:48.147Z,3.45
2022-10-05T11:51:09.642Z,3.33
2022-10-05T11:54:35.144Z,3.85
2022-10-05T11:57:54.801Z,4.07
2022-10-05T12:01:04.088Z,3.03
2022-10-05T12:04:18.957Z,3.70
2022-10-05T12:07:30.353Z,3.28
2022-10-05T12:10:45.393Z,3.28
2022-10-05T12:13:56.011Z,3.25
2022-10-05T12:17:13.029Z,3.53
2022-10-05T12:20:21.541Z,2.83
2022-10-05T12:23:34.013Z,3.92
2022-10-05T12:26:44.729Z,2.78
2022-10-05T12:29:57.203Z,2.85
2022-10-05T12:33:09.518Z,4.63
2022-10-05T12:36:16.068Z,3.90
2022-10-05T12:39:27.091Z,4.13
2022-10-05T12:42:41.621Z,4.32
2022-10-05T12:45:59.692Z,2.80
2022-10-05T12:49:18.219Z,3.00
2022-10-05T12:52:37.003Z,2.80
2022-10-05T12:55:48.236Z,3.35
2022-10-05T12:59:01.061Z,2.50
2022-10-05T13:02:14.116Z,2.72
2022-10-05T13:05:28.231Z,2.17
2022-10-05T13:08:41.351Z,2.40
2022-10-05T13:11:49.418Z,2.20
2022-10-05T13:15:05.206Z,2.30
2022-10-05T13:18:22.426Z,2.42
2022-10-05T13:21:34.015Z,2.30
2022-10-05T13:24:43.609Z,2.45
2022-10-05T13:27:53.278Z,2.67
2022-10-05T13:31:07.966Z,2.05
2022-10-05T13:34:24.619Z,2.05
2022-10-05T13:37:34.918Z,2.38
2022-10-05T13:40:47.015Z,2.22
2022-10-05T13:44:00.079Z,2.10
2022-10-05T13:47:09.529Z,2.60
2022-10-05T13:50:20.160Z,2.45
2022-10-05T13:53:37.426Z,2.38
2022-10-05T13:56:45.901Z,2.10
2022-10-05T13:59:54.976Z,1.90
2022-10-05T14:03:01.945Z,1.80
2022-10-05T14:06:12.417Z,1.80
2022-10-05T14:09:29.512Z,1.77
2022-10-05T14:12:41.284Z,2.38
2022-10-05T14:15:57.263Z,2.08
2022-10-05T14:19:24.647Z,2.00
2022-10-05T14:22:29.539Z,1.65
2022-10-05T14:25:46.437Z,1.70
2022-10-05T14:29:01.173Z,2.03
2022-10-05T14:32:13.921Z,1.80
2022-10-05T14:35:21.969Z,1.70
2022-10-05T14:38:29.400Z,1.45
2022-10-05T14:41:37.574Z,1.70
2022-10-05T14:44:41.049Z,1.67
2022-10-05T14:47:48.965Z,1.40
2022-10-05T14:50:59.312Z,2.08
2022-10-05T14:54:04.632Z,1.75
2022-10-05T14:57:16.336Z,2.00
2022-10-05T15:00:20.155Z,2.60
2022-10-05T15:03:51.970Z,2.40
2022-10-05T15:07:14.105Z,2.00
2022-10-05T15:10:33.804Z,3.47
2022-10-05T15:13:41.451Z,2.28
2022-10-05T15:16:45.964Z,2.10
2022-10-05T15:20:01.689Z,2.70
2022-10-05T15:23:24.493Z,2.30
2022-10-05T15:26:41.532Z,2.42
2022-10-05T15:29:57.737Z,1.90
2022-10-05T15:35:32.027Z,2.38
2022-10-05T15:38:42.667Z,2.03
2022-10-05T15:42:00.176Z,2.70
2022-10-05T15:45:13.294Z,2.67
2022-10-05T15:48:20.920Z,2.08
2022-10-05T15:55:02.745Z,2.50
2022-10-05T15:58:23.663Z,2.53
2022-10-05T16:01:47.165Z,2.55
2022-10-05T16:05:04.484Z,3.10
2022-10-05T16:08:32.838Z,2.72
2022-10-05T16:11:53.918Z,2.67
2022-10-05T16:15:07.280Z,3.25
2022-10-05T16:18:34.018Z,2.83
2022-10-05T16:21:45.803Z,2.65
2022-10-05T16:25:03.806Z,2.50
2022-10-05T16:28:18.918Z,2.92
2022-10-05T16:31:31.041Z,2.60
2022-10-05T16:34:49.337Z,2.40
2022-10-05T16:38:05.743Z,2.45
2022-10-05T16:41:20.861Z,2.85
2022-10-05T16:44:34.465Z,2.70
2022-10-05T16:47:47.913Z,2.35
2022-10-05T16:51:02.503Z,2.78
2022-10-05T16:54:19.024Z,3.00
2022-10-05T16:57:28.202Z,3.80
2022-10-05T17:00:40.758Z,4.40
2022-10-05T17:04:03.294Z,3.70
2022-10-05T17:07:22.674Z,3.20
2022-10-05T17:10:41.084Z,4.03
2022-10-05T17:14:04.859Z,7.68
2022-10-05T17:17:34.273Z,10.10
2022-10-05T17:20:47.009Z,5.47
2022-10-05T17:23:55.832Z,4.65
2022-10-05T17:27:07.175Z,4.32
2022-10-05T17:30:53.966Z,4.32
2022-10-05T17:34:27.299Z,4.65
2022-10-05T17:37:36.461Z,5.15
2022-10-05T17:40:40.619Z,5.13
2022-10-05T17:44:19.964Z,5.00
2022-10-05T17:47:58.434Z,6.53
2022-10-05T17:51:19.066Z,6.80
2022-10-05T17:54:41.600Z,6.35
2022-10-05T17:57:44.868Z,6.30
2022-10-05T18:01:16.992Z,6.53
2022-10-05T18:04:34.617Z,5.50
2022-10-05T18:07:39.203Z,7.00
2022-10-05T18:11:07.091Z,6.93
2022-10-05T18:14:19.955Z,6.40
2022-10-05T18:17:39.894Z,6.20
2022-10-05T18:21:20.429Z,5.88
2022-10-05T18:24:45.234Z,6.28
2022-10-05T18:28:00.880Z,6.97
2022-10-05T18:31:18.321Z,6.85
2022-10-05T18:34:32.387Z,6.97
2022-10-05T18:37:48.644Z,6.75
2022-10-05T18:41:00.203Z,6.18
2022-10-05T18:44:21.894Z,6.10
2022-10-05T18:47:33.129Z,5.43
2022-10-05T18:50:43.642Z,5.53
2022-10-05T18:54:02.734Z,5.57
2022-10-05T18:57:38.625Z,5.47
2022-10-05T19:00:59.914Z,6.68
2022-10-05T19:04:19.311Z,6.13
2022-10-05T19:07:33.663Z,5.65
2022-10-05T19:10:45.239Z,5.10
2022-10-05T19:13:58.338Z,5.13
2022-10-05T19:17:19.254Z,5.97
2022-10-05T19:20:27.464Z,5.38
2022-10-05T19:23:47.865Z,5.13
2022-10-05T19:27:06.555Z,5.07
2022-10-05T19:30:19.613Z,5.57
2022-10-05T19:33:39.637Z,5.50
2022-10-05T19:37:02.267Z,6.70
2022-10-05T19:40:16.580Z,6.43
2022-10-05T19:43:45.645Z,6.72
2022-10-05T19:50:25.933Z,7.55
2022-10-05T19:53:31.838Z,7.50
2022-10-05T19:56:46.640Z,6.93
2022-10-05T19:59:57.493Z,7.20
2022-10-05T20:03:12.856Z,6.70
2022-10-05T20:06:16.186Z,6.85
2022-10-05T20:09:21.538Z,6.72
2022-10-05T20:12:50.534Z,6.25
2022-10-05T20:16:45.847Z,6.72
2022-10-05T20:20:06.436Z,8.00
2022-10-05T20:23:24.196Z,9.20
2022-10-05T20:27:05.478Z,9.43
2022-10-05T20:30:10.342Z,9.68
2022-10-05T20:33:14.855Z,8.57
2022-10-05T20:36:17.967Z,8.15
2022-10-05T20:39:21.470Z,8.52
2022-10-05T20:42:25.403Z,11.52
2022-10-05T20:45:28.555Z,12.63
2022-10-05T20:48:33.068Z,10.52
2022-10-05T20:51:36.802Z,11.98
2022-10-05T20:54:40.493Z,12.32
2022-10-05T20:57:46.004Z,9.93
2022-10-05T21:01:06.768Z,12.18
2022-10-05T21:04:11.374Z,11.40
2022-10-05T21:07:15.379Z,9.55
2022-10-05T21:10:18.660Z,11.30
2022-10-05T21:13:21.778Z,10.05
2022-10-05T21:16:25.013Z,9.40
2022-10-05T21:19:30.191Z,9.65
2022-10-05T21:22:35.454Z,9.35
2022-10-05T21:25:38.692Z,9.23
2022-10-05T21:28:42.564Z,8.10
2022-10-05T21:35:02.721Z,9.95
2022-10-05T21:38:05.989Z,11.63
2022-10-05T21:41:09.451Z,9.60
2022-10-05T21:44:12.643Z,10.50
2022-10-05T21:47:15.826Z,9.18
2022-10-05T21:50:22.504Z,10.20
2022-10-05T21:53:28.778Z,9.13
2022-10-05T21:56:34.822Z,9.02
2022-10-05T21:59:38.131Z,8.27
2022-10-05T22:02:41.670Z,8.82
2022-10-05T22:05:46.246Z,9.02
2022-10-05T22:08:49.554Z,7.47
2022-10-05T22:11:53.115Z,7.78
2022-10-05T22:14:56.342Z,8.45
2022-10-05T22:18:00.496Z,8.90
2022-10-05T22:21:05.976Z,9.63
2022-10-05T22:24:09.923Z,8.43
2022-10-05T22:27:13.371Z,9.80
2022-10-05T22:30:16.713Z,8.98
2022-10-05T22:33:19.892Z,8.35
2022-10-05T22:36:24.771Z,10.35
2022-10-05T22:39:28.091Z,9.93
2022-10-05T22:42:31.195Z,9.85
2022-10-05T22:45:34.559Z,8.10
2022-10-05T22:48:37.710Z,8.63
2022-10-05T22:51:42.180Z,7.75
2022-10-05T22:54:45.553Z,7.78
2022-10-05T22:57:49.189Z,8.18
2022-10-05T23:00:58.362Z,7.20
2022-10-05T23:04:02.032Z,7.30
2022-10-05T23:07:06.549Z,6.03
2022-10-05T23:10:12.270Z,6.20
2022-10-05T23:13:16.282Z,6.70
2022-10-05T23:16:21.236Z,6.53
2022-10-05T23:19:24.782Z,6.90
2022-10-05T23:22:29.269Z,7.40
2022-10-05T23:25:32.576Z,7.03
2022-10-05T23:28:35.872Z,7.40
2022-10-05T23:31:38.972Z,7.65
2022-10-05T23:34:42.192Z,7.45
2022-10-05T23:37:46.681Z,7.53
2022-10-05T23:40:49.798Z,7.43
2022-10-05T23:43:54.647Z,7.60
2022-10-05T23:46:57.755Z,7.60
2022-10-05T23:50:00.902Z,7.05
2022-10-05T23:53:05.732Z,7.15
2022-10-05T23:56:09.231Z,7.60
2022-10-05T23:59:12.439Z,6.75
